PACV METAR and TAF weather

Enter ICAO airport designator
Station Type Date Time Source
PACV METAR 2022/05/24 10:53 UTC NOAA

PACV 241053Z 06004KT 10SM SCT013 OVC028 06/04 A3003 RMK AO2 RAB15E39 SLP168 P0000 T00610044


Station Type Date Time Source
PACV Decoded METAR 2022/05/24 10:53 UTC NOAA

MERLE K. SMITH AIRPORT, AK, United States (PACV) 60-30N 145-29W 13M
May 24, 2022 - 06:53 AM EDT / 2022.05.24 1053 UTC
Wind: from the ENE (060 degrees) at 5 MPH (4 KT):0
Visibility: 10 mile(s):0
Sky conditions: overcast
Precipitation last hour: A trace
Temperature: 43.0 F (6.1 C)
Dew Point: 39.9 F (4.4 C)
Relative Humidity: 88%
Pressure (altimeter): 30.03 in. Hg (1016 hPa)
ob: PACV 241053Z 06004KT 10SM SCT013 OVC028 06/04 A3003 RMK AO2 RAB15E39 SLP168 P0000 T00610044
cycle: 11

Station Type Date Time Source
PACV TAF 2022/05/24 06:48 UTC NOAA

TAF PACV 240545Z 2406/2506 VRB05KT P6SM BKN025 OVC035
FM240900 VRB03KT P6SM -RA OVC015

Example: see airport list